Time;durP1;ratioP1;P1;durP2;ratioP2;P2;SDS_P1;SDS_P2;PMS_P1;PMS_P2;Temp;Humidity;BMP_temperature;BMP_pressure;BME280_temperature;BME280_humidity;BME280_pressure;Samples;Min_cycle;Max_cycle;Signal;HPM_P1;HPM_P2
2021/07/16 00:02:14;;;;;;;8.90;4.87;;;;;;;19.44;81.77;95493.47;1745661;81;21006;-59
2021/07/16 00:04:40;;;;;;;5.60;5.05;;;;;;;19.45;81.53;95501.87;1741624;81;21013;-60
2021/07/16 00:07:07;;;;;;;10.23;5.35;;;;;;;19.38;81.36;95493.34;1740381;82;21065;-59
2021/07/16 00:09:33;;;;;;;10.40;5.42;;;;;;;19.29;81.86;95488.48;1740689;81;21499;-60
2021/07/16 00:12:00;;;;;;;11.55;5.97;;;;;;;19.23;82.61;95481.66;1744708;81;21049;-59
2021/07/16 00:14:26;;;;;;;12.20;5.10;;;;;;;19.22;82.31;95482.58;1740846;81;21538;-59
2021/07/16 00:16:54;;;;;;;11.15;5.90;;;;;;;19.27;82.24;95478.81;1745486;81;21069;-59
2021/07/16 00:19:21;;;;;;;7.80;5.15;;;;;;;19.25;81.98;95464.17;1740337;82;21030;-59
2021/07/16 00:21:48;;;;;;;10.30;5.75;;;;;;;19.24;83.12;95453.95;1746671;81;21013;-59
2021/07/16 00:24:14;;;;;;;15.80;5.92;;;;;;;19.21;82.57;95447.91;1745326;81;21089;-59
2021/07/16 00:26:46;;;;;;;8.73;5.75;;;;;;;19.20;83.11;95454.19;1744569;81;21009;-59
2021/07/16 00:29:11;;;;;;;11.97;5.53;;;;;;;19.27;83.03;95444.89;1745814;81;21610;-60
2021/07/16 00:31:38;;;;;;;11.88;5.53;;;;;;;19.29;82.60;95444.81;1741594;81;21085;-63
2021/07/16 00:34:04;;;;;;;11.68;5.75;;;;;;;19.26;82.02;95443.17;1745190;81;21484;-59
2021/07/16 00:36:32;;;;;;;8.95;5.25;;;;;;;19.20;81.82;95442.16;1744042;81;21141;-59
2021/07/16 00:38:58;;;;;;;6.83;5.03;;;;;;;19.19;82.06;95451.14;1750112;81;21493;-59
2021/07/16 00:41:25;;;;;;;12.80;5.87;;;;;;;19.19;82.57;95457.34;1741778;81;20994;-60
2021/07/16 00:43:51;;;;;;;18.65;5.75;;;;;;;19.27;82.71;95460.08;1740581;81;21475;-59
2021/07/16 00:46:18;;;;;;;9.35;6.47;;;;;;;19.29;82.41;95456.38;1746144;81;21123;-59
2021/07/16 00:48:44;;;;;;;8.23;5.85;;;;;;;19.32;82.41;95454.86;1739996;82;21033;-59
2021/07/16 00:51:13;;;;;;;9.88;5.75;;;;;;;19.37;82.35;95466.65;1740767;81;21025;-59
2021/07/16 00:53:40;;;;;;;11.68;5.62;;;;;;;19.36;81.70;95476.50;1740641;81;21065;-59
2021/07/16 00:56:07;;;;;;;15.83;6.17;;;;;;;19.28;82.27;95484.53;1745872;81;21037;-59
2021/07/16 00:58:34;;;;;;;11.33;6.17;;;;;;;19.31;82.51;95486.59;1742167;81;21080;-59
2021/07/16 01:01:03;;;;;;;8.80;6.70;;;;;;;19.33;82.50;95502.09;1747751;81;21506;-58
2021/07/16 01:03:29;;;;;;;8.35;6.58;;;;;;;19.38;82.36;95550.86;1744404;81;21070;-59
2021/07/16 01:05:56;;;;;;;8.25;5.50;;;;;;;19.34;80.50;95541.26;1740685;81;21502;-59
2021/07/16 01:08:22;;;;;;;7.97;5.40;;;;;;;19.38;77.65;95572.27;1749448;81;21058;-59
2021/07/16 01:10:49;;;;;;;8.48;4.97;;;;;;;19.55;75.99;95591.41;1741101;81;21014;-60
2021/07/16 01:13:16;;;;;;;8.98;5.22;;;;;;;19.76;73.75;95612.66;1744208;81;21073;-59
2021/07/16 01:15:42;;;;;;;7.10;5.17;;;;;;;19.85;73.80;95614.33;1745956;81;21042;-60
2021/07/16 01:18:09;;;;;;;8.63;5.35;;;;;;;19.88;74.47;95630.26;1745964;81;21507;-59
2021/07/16 01:20:36;;;;;;;9.53;5.50;;;;;;;19.89;74.02;95653.39;1746407;81;21491;-59
2021/07/16 01:23:19;;;;;;;12.70;6.17;;;;;;;19.91;75.30;95663.14;1744898;81;21023;-59
2021/07/16 01:25:46;;;;;;;12.13;5.80;;;;;;;19.80;77.85;95677.98;1744245;81;21069;-59
2021/07/16 01:28:13;;;;;;;8.45;5.03;;;;;;;19.60;77.05;95668.78;1740279;82;21574;-59
2021/07/16 01:30:40;;;;;;;10.38;4.42;;;;;;;19.17;77.84;95628.22;1744794;81;21074;-59
2021/07/16 01:33:07;;;;;;;8.28;4.28;;;;;;;19.03;77.92;95585.69;1744072;81;21163;-59
2021/07/16 01:48:10;;;;;;;8.35;4.87;;;;;;;19.42;79.33;95690.69;1860282;77;22949;-59
2021/07/16 01:50:41;;;;;;;7.85;4.62;;;;;;;19.16;80.48;95685.34;1832388;78;21003;-59
2021/07/16 01:53:10;;;;;;;9.03;4.83;;;;;;;19.10;80.78;95670.48;1832161;78;21046;-59
2021/07/16 01:55:38;;;;;;;12.82;4.75;;;;;;;19.03;80.84;95653.88;1832210;78;21075;-59
2021/07/16 01:58:09;;;;;;;5.87;3.72;;;;;;;19.00;80.81;95636.66;1832099;78;21042;-59
2021/07/16 02:00:40;;;;;;;7.42;3.92;;;;;;;18.82;80.07;95617.52;1800430;78;21023;-59
2021/07/16 02:03:10;;;;;;;7.10;4.78;;;;;;;18.57;80.44;95604.05;1832341;78;21027;-59
2021/07/16 02:05:40;;;;;;;11.73;4.83;;;;;;;18.40;81.06;95608.02;1832335;78;21023;-59
2021/07/16 02:08:15;;;;;;;9.20;4.55;;;;;;;18.41;82.47;95608.88;1832203;78;21011;-59
2021/07/16 02:10:49;;;;;;;7.60;4.50;;;;;;;18.45;83.49;95597.11;1832432;78;21020;-59
2021/07/16 02:13:16;;;;;;;7.83;4.55;;;;;;;18.42;83.42;95594.56;1832262;78;21011;-59
2021/07/16 02:15:46;;;;;;;8.53;4.28;;;;;;;18.41;83.53;95587.03;1832036;78;21103;-59
2021/07/16 02:18:15;;;;;;;11.75;4.35;;;;;;;18.47;83.77;95587.19;1832315;78;21001;-59
2021/07/16 02:20:42;;;;;;;4.90;3.27;;;;;;;18.42;84.11;95586.11;1832332;78;20984;-59
2021/07/16 02:23:14;;;;;;;7.58;3.30;;;;;;;18.42;83.33;95578.09;1832179;78;20948;-59
2021/07/16 02:25:41;;;;;;;9.45;3.83;;;;;;;18.40;82.83;95575.96;1832352;78;21027;-59
2021/07/16 02:28:25;;;;;;;5.05;4.03;;;;;;;18.43;82.99;95573.61;1832335;78;20971;-59
2021/07/16 02:30:52;;;;;;;8.25;4.08;;;;;;;18.47;83.36;95578.73;1832309;78;21039;-59
2021/07/16 02:33:21;;;;;;;9.38;3.87;;;;;;;18.45;83.44;95572.59;1832533;78;20984;-59
2021/07/16 02:35:47;;;;;;;8.75;4.33;;;;;;;18.44;83.05;95579.33;1832213;78;21047;-59
2021/07/16 02:38:15;;;;;;;5.80;4.20;;;;;;;18.40;83.75;95590.66;1832392;78;21023;-59
2021/07/16 02:40:42;;;;;;;6.75;4.47;;;;;;;18.42;83.49;95595.90;1832200;78;21024;-59
2021/07/16 02:43:09;;;;;;;6.33;4.53;;;;;;;18.50;83.93;95607.95;1832362;78;20987;-59
2021/07/16 02:45:36;;;;;;;6.47;5.00;;;;;;;18.55;83.72;95617.09;1832292;78;21018;-59
2021/07/16 02:48:04;;;;;;;9.15;4.37;;;;;;;18.54;83.96;95615.34;1835018;78;21007;-59
2021/07/16 02:50:35;;;;;;;6.67;3.90;;;;;;;18.55;84.13;95619.28;1835191;78;20998;-59
2021/07/16 02:53:05;;;;;;;8.68;3.62;;;;;;;18.50;83.64;95607.95;1835263;78;20987;-59
2021/07/16 02:55:33;;;;;;;5.00;3.60;;;;;;;18.48;83.38;95600.95;1833882;78;21031;-59
2021/07/16 02:57:59;;;;;;;5.10;3.67;;;;;;;18.41;83.21;95593.70;1835311;78;21453;-59
2021/07/16 03:11:22;;;;;;;7.08;4.60;;;;;;;19.43;80.62;95595.63;1860194;77;23208;-59
2021/07/16 03:13:48;;;;;;;6.87;4.58;;;;;;;19.19;81.47;95606.28;1800135;78;21004;-59
2021/07/16 03:16:15;;;;;;;8.03;4.25;;;;;;;19.08;81.91;95610.86;1832443;78;20968;-59
2021/07/16 03:18:42;;;;;;;8.20;5.35;;;;;;;18.96;81.44;95622.18;1832014;78;21003;-59
2021/07/16 03:21:08;;;;;;;9.15;4.33;;;;;;;18.80;81.86;95621.62;1832338;78;20984;-59
2021/07/16 03:23:34;;;;;;;7.47;4.45;;;;;;;18.69;82.97;95624.40;1832639;78;20983;-59
2021/07/16 03:26:01;;;;;;;8.63;5.45;;;;;;;18.59;83.35;95623.52;1832124;78;21039;-59
2021/07/16 03:28:27;;;;;;;9.60;5.40;;;;;;;18.55;83.13;95613.94;1832645;78;20983;-59
2021/07/16 03:30:54;;;;;;;7.95;5.17;;;;;;;18.48;83.85;95604.48;1832465;78;21035;-59
2021/07/16 03:33:20;;;;;;;8.90;4.85;;;;;;;18.41;84.60;95587.50;1831952;78;21015;-59
2021/07/16 03:35:47;;;;;;;7.53;4.58;;;;;;;18.37;84.31;95570.30;1832032;78;21512;-59
2021/07/16 03:38:13;;;;;;;4.78;4.20;;;;;;;18.37;84.07;95573.45;1832421;78;21007;-59
2021/07/16 03:40:40;;;;;;;5.37;4.53;;;;;;;18.40;83.74;95567.95;1832025;78;21018;-59
2021/07/16 03:43:07;;;;;;;7.70;4.55;;;;;;;18.37;83.71;95569.44;1832048;78;21063;-59
2021/07/16 03:45:35;;;;;;;8.78;4.70;;;;;;;18.32;84.24;95576.78;1832309;78;21012;-59
2021/07/16 03:48:03;;;;;;;8.13;4.55;;;;;;;18.26;84.45;95588.64;1832355;78;21480;-59
2021/07/16 03:50:30;;;;;;;10.05;4.90;;;;;;;18.21;84.58;95584.47;1832248;78;21477;-59
2021/07/16 03:52:58;;;;;;;6.00;4.05;;;;;;;18.21;84.96;95579.99;1832228;78;21016;-59
2021/07/16 03:55:25;;;;;;;5.67;4.22;;;;;;;18.22;85.18;95583.52;1832043;78;21039;-59
2021/07/16 03:57:52;;;;;;;6.92;4.87;;;;;;;18.16;84.92;95578.88;1832357;78;21473;-59
2021/07/16 04:00:26;;;;;;;6.78;4.70;;;;;;;18.23;84.70;95574.11;1832407;78;21091;-59
2021/07/16 04:02:58;;;;;;;8.50;3.98;;;;;;;18.22;84.25;95572.84;1832583;78;21024;-59
2021/07/16 04:05:26;;;;;;;8.57;5.23;;;;;;;18.18;83.99;95560.59;1832213;78;20995;-59
2021/07/16 04:08:02;;;;;;;7.72;4.70;;;;;;;18.21;84.89;95548.42;1831785;78;21114;-59
2021/07/16 04:10:23;;;;;;;5.30;4.45;;;;;;;18.24;85.06;95539.77;1830433;78;21024;-59
2021/07/16 04:12:58;;;;;;;6.80;4.65;;;;;;;18.31;85.13;95540.34;1831718;78;21047;-59
2021/07/16 04:15:26;;;;;;;8.98;4.50;;;;;;;18.38;85.01;95537.29;1830393;78;20988;-59
2021/07/16 04:17:58;;;;;;;7.97;4.15;;;;;;;18.43;85.05;95537.06;1832185;78;21050;-59
2021/07/16 04:20:26;;;;;;;5.87;4.25;;;;;;;18.43;85.14;95535.73;1831587;78;20980;-59
2021/07/16 04:22:55;;;;;;;4.15;3.75;;;;;;;18.45;85.01;95533.85;1832313;78;21441;-59
2021/07/16 04:25:23;;;;;;;6.12;4.20;;;;;;;18.54;85.05;95533.36;1831806;78;21060;-59
2021/07/16 04:27:52;;;;;;;6.25;4.28;;;;;;;18.60;84.92;95538.41;1831409;78;21008;-59
2021/07/16 04:30:23;;;;;;;8.58;4.47;;;;;;;18.67;84.91;95536.75;1831698;78;21496;-59
2021/07/16 04:32:55;;;;;;;4.50;3.80;;;;;;;18.69;84.42;95543.74;1831714;78;20976;-59
2021/07/16 04:35:23;;;;;;;8.53;4.47;;;;;;;18.67;83.80;95547.44;1831833;78;21544;-59
2021/07/16 04:37:49;;;;;;;8.35;4.05;;;;;;;18.63;83.70;95534.72;1831819;78;21003;-59
2021/07/16 04:40:20;;;;;;;4.67;3.62;;;;;;;18.65;84.78;95527.94;1799802;78;21003;-59
2021/07/16 04:42:50;;;;;;;4.85;3.95;;;;;;;18.72;84.68;95523.56;1831592;78;21012;-59
2021/07/16 04:45:18;;;;;;;3.92;3.52;;;;;;;18.75;84.46;95517.20;1831532;78;20972;-59
2021/07/16 04:47:45;;;;;;;7.28;4.10;;;;;;;18.81;84.09;95515.56;1831428;78;20980;-59
2021/07/16 04:50:14;;;;;;;9.13;4.25;;;;;;;18.92;84.32;95514.98;1831317;78;20986;-59
2021/07/16 04:52:47;;;;;;;5.17;3.77;;;;;;;19.00;84.42;95519.00;1831889;78;20964;-59
2021/07/16 04:55:14;;;;;;;7.08;3.98;;;;;;;19.12;83.97;95521.47;1831888;78;20995;-60
2021/07/16 04:57:42;;;;;;;5.10;4.12;;;;;;;19.21;83.59;95529.02;1831804;78;20992;-59
2021/07/16 05:00:10;;;;;;;8.25;4.33;;;;;;;19.28;83.43;95530.90;1831741;78;21009;-59
2021/07/16 05:02:37;;;;;;;5.65;4.10;;;;;;;19.31;82.96;95531.21;1831708;78;21477;-59
2021/07/16 05:05:06;;;;;;;5.45;4.10;;;;;;;19.38;83.13;95529.94;1831680;78;21464;-59
2021/07/16 05:07:32;;;;;;;5.90;3.77;;;;;;;19.38;83.29;95535.28;1831618;78;21011;-59
2021/07/16 05:09:59;;;;;;;4.55;4.00;;;;;;;19.39;82.94;95535.66;1797948;79;21059;-59
2021/07/16 05:12:25;;;;;;;6.67;4.10;;;;;;;19.41;82.88;95521.25;1824076;78;21481;-59
2021/07/16 05:14:52;;;;;;;5.10;4.20;;;;;;;19.46;83.06;95514.31;1824256;79;20981;-59
2021/07/16 05:17:18;;;;;;;5.30;3.77;;;;;;;19.55;83.35;95512.94;1824033;79;21104;-59
2021/07/16 05:19:45;;;;;;;5.70;3.87;;;;;;;19.66;82.97;95504.70;1796709;79;21015;-59
2021/07/16 05:22:11;;;;;;;4.60;3.92;;;;;;;19.73;82.54;95503.05;1823959;79;21532;-59
2021/07/16 05:24:38;;;;;;;8.55;3.50;;;;;;;19.84;82.75;95494.81;1823976;79;21124;-59
2021/07/16 05:27:06;;;;;;;4.85;3.70;;;;;;;19.95;81.94;95495.52;1823845;79;21020;-59
2021/07/16 05:29:32;;;;;;;5.40;3.55;;;;;;;20.06;82.02;95486.42;1824328;78;21450;-59
2021/07/16 05:31:59;;;;;;;5.72;4.30;;;;;;;20.27;81.21;95492.81;1823575;78;21063;-59
2021/07/16 05:34:27;;;;;;;5.65;3.37;;;;;;;20.47;82.25;95491.65;1823827;79;21008;-59
2021/07/16 05:36:54;;;;;;;4.95;3.25;;;;;;;20.58;81.77;95497.25;1823469;79;21019;-59
2021/07/16 05:39:20;;;;;;;4.28;3.37;;;;;;;20.71;82.05;95495.58;1824140;79;21008;-59
2021/07/16 05:41:46;;;;;;;3.90;3.17;;;;;;;20.77;80.94;95494.34;1824176;78;21000;-59
2021/07/16 05:44:13;;;;;;;3.92;3.22;;;;;;;20.89;81.06;95492.27;1824261;78;20980;-59
2021/07/16 05:46:40;;;;;;;3.62;3.33;;;;;;;21.01;80.70;95483.92;1823726;79;21020;-59
2021/07/16 05:49:06;;;;;;;5.10;3.37;;;;;;;21.13;79.84;95492.56;1824156;79;21474;-59
2021/07/16 05:51:33;;;;;;;5.80;3.33;;;;;;;21.21;79.99;95485.38;1823509;79;20977;-59
2021/07/16 05:54:01;;;;;;;7.03;3.85;;;;;;;21.23;79.09;95478.58;1824089;79;21466;-59
2021/07/16 05:56:28;;;;;;;4.92;3.60;;;;;;;21.23;79.31;95480.78;1823817;79;21000;-59
2021/07/16 05:58:54;;;;;;;3.70;3.33;;;;;;;21.22;78.74;95482.20;1823817;78;21115;-59
2021/07/16 06:01:21;;;;;;;4.97;3.70;;;;;;;21.22;79.08;95475.04;1823808;79;21008;-59
2021/07/16 06:03:48;;;;;;;6.30;3.85;;;;;;;21.34;78.98;95470.70;1824411;79;21462;-59
2021/07/16 06:06:15;;;;;;;5.95;3.00;;;;;;;21.47;79.25;95470.36;1823590;79;21489;-59
2021/07/16 06:08:41;;;;;;;5.33;4.25;;;;;;;21.61;78.69;95468.98;1823852;78;21051;-59
2021/07/16 06:11:08;;;;;;;4.35;3.67;;;;;;;21.66;78.05;95469.18;1828132;78;20984;-59
2021/07/16 06:13:34;;;;;;;5.72;4.78;;;;;;;21.69;77.46;95470.31;1831509;78;21019;-59
2021/07/16 06:16:00;;;;;;;7.78;4.80;;;;;;;21.75;78.00;95473.48;1831557;78;21008;-59
2021/07/16 06:18:27;;;;;;;6.15;4.72;;;;;;;21.86;78.08;95471.43;1831302;78;21524;-59
2021/07/16 06:20:56;;;;;;;11.85;4.62;;;;;;;21.97;77.31;95468.92;1831378;78;21010;-59
2021/07/16 06:23:23;;;;;;;11.15;4.90;;;;;;;22.10;77.30;95477.03;1831817;78;21023;-59
2021/07/16 06:25:50;;;;;;;6.40;4.67;;;;;;;22.21;77.05;95477.20;1799308;78;21560;-59
2021/07/16 06:28:16;;;;;;;6.72;4.53;;;;;;;22.30;76.47;95474.40;1831519;78;21007;-59
2021/07/16 06:30:43;;;;;;;6.33;4.75;;;;;;;22.38;75.99;95474.73;1831966;78;20987;-59
2021/07/16 06:33:09;;;;;;;8.85;4.97;;;;;;;22.50;76.08;95478.41;1831948;78;21072;-59
2021/07/16 06:35:37;;;;;;;7.60;4.80;;;;;;;22.58;75.57;95481.46;1831207;78;20984;-59
2021/07/16 06:38:04;;;;;;;7.35;5.53;;;;;;;22.62;74.25;95472.20;1831010;78;21019;-59
2021/07/16 06:40:30;;;;;;;10.08;5.75;;;;;;;22.69;75.00;95475.34;1831629;78;21011;-59
2021/07/16 06:42:57;;;;;;;14.93;10.30;;;;;;;22.81;75.35;95475.00;1831670;78;21533;-59
2021/07/16 06:45:23;;;;;;;30.65;16.00;;;;;;;22.92;75.13;95474.24;1831848;78;20987;-59
2021/07/16 06:47:50;;;;;;;34.92;24.00;;;;;;;22.97;73.95;95468.06;1831603;78;21465;-59
2021/07/16 06:50:17;;;;;;;22.80;15.53;;;;;;;22.97;72.94;95462.22;1831300;78;21074;-59
2021/07/16 06:52:43;;;;;;;21.23;14.38;;;;;;;23.00;73.16;95467.38;1831717;78;21051;-59
2021/07/16 06:55:10;;;;;;;12.07;6.70;;;;;;;23.09;72.64;95460.51;1831081;78;21114;-59
2021/07/16 06:57:37;;;;;;;7.30;5.05;;;;;;;23.14;70.82;95461.53;1831550;78;20984;-59
2021/07/16 07:00:05;;;;;;;15.55;9.48;;;;;;;23.20;71.17;95460.59;1831704;78;21027;-59
2021/07/16 07:02:32;;;;;;;10.35;7.85;;;;;;;23.30;71.74;95464.84;1831422;78;21060;-60
2021/07/16 07:04:58;;;;;;;11.55;8.40;;;;;;;23.41;71.36;95462.73;1831626;78;21465;-59
2021/07/16 07:07:25;;;;;;;14.98;10.78;;;;;;;23.55;70.97;95463.46;1831318;78;21008;-59
2021/07/16 07:09:53;;;;;;;7.75;6.95;;;;;;;23.66;70.11;95465.41;1831727;78;20975;-59
2021/07/16 07:12:20;;;;;;;8.05;6.45;;;;;;;23.77;69.68;95463.80;1833555;78;21054;-59
2021/07/16 07:14:47;;;;;;;8.60;6.87;;;;;;;23.85;69.02;95462.73;1834803;78;21489;-59
2021/07/16 07:17:14;;;;;;;7.75;6.05;;;;;;;23.94;69.34;95458.03;1716462;82;20977;-59
2021/07/16 07:19:40;;;;;;;7.70;5.97;;;;;;;24.07;68.81;95470.97;1767547;81;21022;-59
2021/07/16 07:22:07;;;;;;;9.13;7.72;;;;;;;24.19;67.59;95474.10;1767599;81;21034;-59
2021/07/16 07:24:33;;;;;;;14.87;11.18;;;;;;;24.26;68.27;95473.63;1767877;81;21038;-59
2021/07/16 07:27:00;;;;;;;11.65;8.23;;;;;;;24.33;68.67;95475.75;1767967;81;20995;-59
2021/07/16 07:29:27;;;;;;;7.80;6.00;;;;;;;24.43;69.15;95471.88;1767820;81;21098;-59
2021/07/16 07:31:53;;;;;;;6.78;5.40;;;;;;;24.46;69.00;95477.55;1767559;81;21065;-59
2021/07/16 07:34:20;;;;;;;6.70;5.55;;;;;;;24.44;69.35;95477.62;1767887;81;21082;-59
2021/07/16 07:36:48;;;;;;;6.33;5.40;;;;;;;24.44;69.09;95491.11;1767394;81;21070;-59
2021/07/16 07:39:18;;;;;;;6.50;5.72;;;;;;;24.37;67.80;95488.04;1767797;81;21054;-59
2021/07/16 07:41:47;;;;;;;9.85;6.28;;;;;;;24.39;70.00;95491.95;1767819;81;21090;-59
2021/07/16 07:44:16;;;;;;;6.40;5.62;;;;;;;24.48;70.27;95496.70;1767843;81;21558;-59
2021/07/16 07:46:43;;;;;;;7.47;6.42;;;;;;;24.54;69.23;95500.76;1768046;81;21061;-59
2021/07/16 07:49:11;;;;;;;9.18;5.97;;;;;;;24.49;69.10;95498.40;1768152;81;21002;-59
2021/07/16 07:51:39;;;;;;;8.53;5.58;;;;;;;24.56;69.57;95497.46;1767800;81;21046;-59
2021/07/16 07:54:06;;;;;;;6.65;5.95;;;;;;;24.66;69.04;95498.48;1767966;81;21066;-59
2021/07/16 07:56:34;;;;;;;7.97;5.80;;;;;;;24.79;68.54;95503.80;1767730;81;21559;-59
2021/07/16 07:59:03;;;;;;;6.55;5.30;;;;;;;24.87;68.74;95505.91;1767807;81;20971;-59
2021/07/16 08:01:32;;;;;;;6.65;5.40;;;;;;;24.87;67.45;95506.77;1768254;81;21503;-59
2021/07/16 08:04:01;;;;;;;6.22;4.72;;;;;;;24.89;67.67;95505.31;1768023;81;21065;-59
2021/07/16 08:06:27;;;;;;;6.05;5.45;;;;;;;25.02;67.73;95508.77;1767796;81;20994;-59
2021/07/16 08:08:54;;;;;;;5.65;4.87;;;;;;;25.14;67.51;95513.23;1767712;81;21074;-59
2021/07/16 08:11:20;;;;;;;8.43;4.97;;;;;;;25.18;66.50;95511.20;1761499;81;21031;-59
2021/07/16 08:13:47;;;;;;;7.03;4.90;;;;;;;25.24;66.84;95508.01;1752354;82;21035;-59
2021/07/16 08:16:14;;;;;;;7.72;5.53;;;;;;;25.29;65.17;95517.10;1752430;82;21082;-59
2021/07/16 08:18:40;;;;;;;6.30;5.40;;;;;;;25.37;65.86;95520.05;1752356;82;21131;-62
2021/07/16 08:21:07;;;;;;;8.88;5.42;;;;;;;25.38;62.61;95515.89;1752389;82;21063;-59
2021/07/16 08:23:34;;;;;;;7.15;6.05;;;;;;;25.36;63.64;95521.05;1752403;82;21026;-59
2021/07/16 08:26:00;;;;;;;7.62;5.90;;;;;;;25.29;64.06;95512.55;1752647;82;21098;-59
2021/07/16 08:28:28;;;;;;;8.33;5.67;;;;;;;25.36;65.70;95515.16;1752398;82;21067;-59
2021/07/16 08:30:55;;;;;;;6.42;5.78;;;;;;;25.55;66.09;95513.22;1752787;82;20979;-59
2021/07/16 08:33:21;;;;;;;7.35;5.95;;;;;;;25.71;66.11;95510.64;1752663;81;21023;-59
2021/07/16 08:35:48;;;;;;;7.17;6.03;;;;;;;25.73;65.53;95520.34;1779933;80;21039;-59
2021/07/16 08:38:15;;;;;;;8.43;6.10;;;;;;;25.49;65.21;95520.44;1779798;81;21075;-59
2021/07/16 08:40:43;;;;;;;8.50;6.55;;;;;;;25.56;65.48;95514.08;1779741;81;21011;-59
2021/07/16 08:43:15;;;;;;;9.05;6.33;;;;;;;25.67;66.21;95514.06;1779721;81;21059;-59
2021/07/16 08:45:44;;;;;;;7.03;6.33;;;;;;;25.84;66.02;95512.22;1780457;80;21003;-59
2021/07/16 08:48:12;;;;;;;10.08;6.17;;;;;;;25.97;65.25;95505.86;1779353;81;21552;-59
2021/07/16 08:50:39;;;;;;;9.05;5.80;;;;;;;26.05;65.22;95507.44;1780015;81;21039;-59
2021/07/16 08:53:08;;;;;;;6.97;6.22;;;;;;;26.13;64.17;95503.61;1779687;80;21011;-59
2021/07/16 08:55:36;;;;;;;6.50;5.90;;;;;;;26.18;64.07;95499.18;1779844;81;21047;-59
2021/07/16 08:58:05;;;;;;;7.85;5.87;;;;;;;26.29;63.91;95504.08;1779946;81;21434;-59
2021/07/16 09:00:32;;;;;;;7.25;5.50;;;;;;;26.39;63.27;95504.68;1779870;80;21011;-59
2021/07/16 09:03:00;;;;;;;7.53;5.97;;;;;;;26.48;63.10;95504.75;1779634;81;21031;-59
2021/07/16 09:05:42;;;;;;;8.38;5.87;;;;;;;26.45;62.26;95507.72;1780095;81;20983;-59
2021/07/16 09:08:16;;;;;;;6.92;5.60;;;;;;;26.41;64.28;95514.39;1779890;81;21015;-59
2021/07/16 09:10:49;;;;;;;6.30;5.60;;;;;;;26.53;61.99;95511.17;1780360;80;20995;-60
2021/07/16 09:13:17;;;;;;;6.53;5.25;;;;;;;26.55;62.05;95511.91;1755875;80;21453;-59
2021/07/16 09:16:00;;;;;;;6.05;4.90;;;;;;;26.62;61.34;95515.82;1787162;80;20999;-59
2021/07/16 09:18:30;;;;;;;6.97;5.42;;;;;;;26.79;60.33;95518.94;1787276;80;21003;-59
2021/07/16 09:21:08;;;;;;;5.95;5.12;;;;;;;26.74;59.48;95522.06;1787025;80;21101;-61
2021/07/16 09:23:43;;;;;;;5.78;5.12;;;;;;;26.74;58.68;95512.09;1786965;80;21026;-59
2021/07/16 09:26:14;;;;;;;5.37;4.67;;;;;;;26.82;58.84;95520.06;1785885;80;21023;-59
2021/07/16 09:28:47;;;;;;;5.53;5.03;;;;;;;26.87;57.00;95516.47;1754493;80;21007;-59
2021/07/16 09:31:21;;;;;;;7.10;4.90;;;;;;;26.86;57.34;95524.20;1787201;80;21061;-59
2021/07/16 09:33:56;;;;;;;6.25;5.20;;;;;;;26.85;58.70;95523.86;1787223;80;21064;-60
2021/07/16 09:36:28;;;;;;;5.60;5.10;;;;;;;26.98;57.38;95529.44;1786992;80;21018;-60
2021/07/16 09:39:00;;;;;;;6.37;4.80;;;;;;;27.24;57.92;95526.41;1787198;80;21517;-59
2021/07/16 09:41:26;;;;;;;5.95;4.62;;;;;;;27.51;55.66;95517.71;1786401;80;21003;-59
2021/07/16 09:44:00;;;;;;;5.55;4.62;;;;;;;27.62;55.07;95514.94;1787009;80;21438;-60
2021/07/16 09:46:27;;;;;;;5.92;5.40;;;;;;;27.67;52.47;95516.36;1787297;80;21511;-60
2021/07/16 09:48:58;;;;;;;7.05;5.33;;;;;;;27.75;53.85;95513.86;1787204;80;21007;-59
2021/07/16 09:51:27;;;;;;;7.90;5.37;;;;;;;27.87;51.78;95511.45;1781700;80;21023;-59
2021/07/16 09:54:05;;;;;;;8.78;5.55;;;;;;;27.94;52.32;95510.39;1786965;80;21023;-59
2021/07/16 09:56:36;;;;;;;7.53;5.70;;;;;;;27.93;53.43;95509.53;1787366;80;21023;-59
2021/07/16 09:59:20;;;;;;;8.28;5.08;;;;;;;27.84;53.79;95513.05;1787010;80;20983;-59
2021/07/16 10:01:49;;;;;;;8.05;5.40;;;;;;;27.82;53.19;95516.39;1785840;80;21003;-60
2021/07/16 10:04:18;;;;;;;6.90;5.40;;;;;;;27.88;53.41;95513.16;1786884;80;21089;-59
2021/07/16 10:06:50;;;;;;;7.58;5.58;;;;;;;28.12;53.40;95521.44;1786711;80;20994;-59
2021/07/16 10:09:19;;;;;;;6.37;5.70;;;;;;;28.27;50.34;95514.63;1787262;80;20990;-60
2021/07/16 10:11:55;;;;;;;9.05;5.42;;;;;;;28.38;51.68;95508.25;1786731;80;21149;-59
2021/07/16 10:14:23;;;;;;;6.53;5.40;;;;;;;28.47;53.04;95500.64;1787138;80;21022;-60
2021/07/16 10:16:52;;;;;;;7.30;5.75;;;;;;;28.66;51.95;95498.47;1786931;80;20971;-59
2021/07/16 10:19:20;;;;;;;6.28;5.45;;;;;;;28.50;48.48;95491.36;1786885;80;21008;-59
2021/07/16 10:21:49;;;;;;;18.60;6.50;;;;;;;28.12;50.46;95504.66;1786931;80;21011;-60
2021/07/16 10:24:22;;;;;;;7.78;5.30;;;;;;;27.62;51.37;95514.94;1787099;80;21007;-59
2021/07/16 10:26:51;;;;;;;8.28;6.22;;;;;;;27.27;53.35;95516.66;1786667;80;21555;-60
2021/07/16 10:29:42;;;;;;;7.08;6.37;;;;;;;26.91;52.63;95514.73;1787113;80;21015;-59
2021/07/16 10:32:10;;;;;;;9.48;6.00;;;;;;;26.68;54.18;95514.44;1787246;80;21004;-60
2021/07/16 10:34:40;;;;;;;9.18;6.35;;;;;;;26.45;54.49;95519.04;1786770;80;21054;-59
2021/07/16 10:37:15;;;;;;;9.60;6.50;;;;;;;26.19;56.25;95518.00;1787257;80;21006;-59
2021/07/16 10:39:52;;;;;;;6.90;6.05;;;;;;;25.95;55.48;95510.52;1787086;80;20964;-59
2021/07/16 10:42:36;;;;;;;8.78;6.20;;;;;;;25.63;56.95;95513.46;1786848;80;21034;-59
2021/07/16 10:45:05;;;;;;;;;;;;;;;25.44;58.08;95514.05;1790257;80;21027;-59
2021/07/16 10:47:41;;;;;;;7.58;6.78;;;;;;;25.18;62.42;95513.41;1786998;80;20104;-59
2021/07/16 10:50:14;;;;;;;9.53;7.03;;;;;;;25.00;63.72;95507.56;1787338;80;21460;-59
2021/07/16 10:52:51;;;;;;;8.93;7.25;;;;;;;24.91;63.80;95499.31;1778411;80;21019;-59
2021/07/16 10:55:30;;;;;;;11.10;7.30;;;;;;;24.83;64.87;95495.86;1786869;80;20947;-59
2021/07/16 10:57:57;;;;;;;10.88;7.33;;;;;;;24.57;64.61;95498.70;1786780;80;21492;-59
2021/07/16 11:00:41;;;;;;;9.90;7.45;;;;;;;24.40;65.42;95504.48;1786659;80;21404;-59
2021/07/16 11:03:12;;;;;;;8.75;7.45;;;;;;;24.19;67.75;95499.71;1787272;80;21011;-59
2021/07/16 11:05:45;;;;;;;9.50;7.50;;;;;;;24.06;67.17;95497.52;1787110;80;20999;-59
2021/07/16 11:08:39;;;;;;;10.63;7.50;;;;;;;23.97;67.24;95504.47;1786755;80;21039;-59
2021/07/16 11:11:22;;;;;;;8.03;6.90;;;;;;;23.91;67.43;95519.75;1784656;80;21563;-59
2021/07/16 11:13:59;;;;;;;8.30;7.15;;;;;;;23.86;68.24;95512.95;1787236;80;21492;-59
2021/07/16 11:16:32;;;;;;;13.15;6.92;;;;;;;23.80;68.91;95508.02;1787011;80;21535;-59
2021/07/16 11:19:13;;;;;;;11.12;6.97;;;;;;;23.67;70.40;95498.09;1787216;80;20995;-59
2021/07/16 11:21:49;;;;;;;9.78;6.83;;;;;;;23.53;71.54;95504.94;1786860;80;21536;-59
2021/07/16 11:24:22;;;;;;;10.55;7.15;;;;;;;23.41;72.37;95504.47;1787226;80;21543;-59
2021/07/16 11:27:09;;;;;;;10.53;7.35;;;;;;;23.37;72.11;95515.09;1787405;80;21058;-59
2021/07/16 11:29:40;;;;;;;10.82;6.70;;;;;;;23.38;72.34;95512.77;1787135;80;21007;-59
2021/07/16 11:32:21;;;;;;;10.23;7.30;;;;;;;23.35;73.27;95506.26;1787224;80;21492;-59
2021/07/16 11:35:00;;;;;;;11.78;7.28;;;;;;;23.33;73.69;95505.01;1787356;80;21022;-59
2021/07/16 11:37:33;;;;;;;9.28;7.42;;;;;;;23.27;75.04;95513.53;1786868;80;21011;-59
2021/07/16 11:40:10;;;;;;;11.78;7.72;;;;;;;23.26;75.35;95521.24;1787354;80;20995;-59
2021/07/16 11:42:40;;;;;;;13.80;8.00;;;;;;;23.20;74.04;95520.30;1786092;80;20995;-60
2021/07/16 11:45:11;;;;;;;12.03;7.60;;;;;;;23.18;74.62;95520.89;1787176;80;21066;-60
2021/07/16 11:47:38;;;;;;;11.97;8.15;;;;;;;23.14;75.60;95517.56;1787193;80;21062;-59
2021/07/16 11:50:09;;;;;;;12.88;8.50;;;;;;;23.11;76.79;95521.33;1786975;80;21082;-59
2021/07/16 11:52:37;;;;;;;14.98;10.03;;;;;;;23.11;77.64;95524.02;1787063;80;21018;-59
2021/07/16 11:55:12;;;;;;;23.18;11.38;;;;;;;23.07;77.79;95517.61;1787195;80;21508;-59
2021/07/16 11:57:47;;;;;;;12.88;8.45;;;;;;;23.14;77.25;95509.49;1787112;80;21395;-59
2021/07/16 12:00:16;;;;;;;13.03;8.40;;;;;;;23.15;76.40;95509.00;1787321;80;21014;-59
2021/07/16 12:02:44;;;;;;;9.10;7.53;;;;;;;23.13;76.53;95502.37;1787304;80;21484;-59
2021/07/16 12:05:15;;;;;;;9.88;7.75;;;;;;;23.07;76.13;95509.05;1787076;80;20999;-59